Time;durP1;ratioP1;P1;durP2;ratioP2;P2;SDS_P1;SDS_P2;PMS_P1;PMS_P2;Temp;Humidity;BMP_temperature;BMP_pressure;BME280_temperature;BME280_humidity;BME280_pressure;Samples;Min_cycle;Max_cycle;Signal;HPM_P1;HPM_P2
2021/06/11 00:00:24;;;;;;;7.03;6.43;;;21.80;91.70;;;;;;5087030;28;20218;-74
2021/06/11 00:02:50;;;;;;;7.37;6.77;;;21.90;91.80;;;;;;5053430;28;20631;-74
2021/06/11 00:05:16;;;;;;;7.97;7.27;;;21.90;91.80;;;;;;5087110;28;20248;-74
2021/06/11 00:07:42;;;;;;;6.87;6.27;;;21.80;91.90;;;;;;5067070;28;20473;-74
2021/06/11 00:10:11;;;;;;;7.80;7.10;;;21.90;92.00;;;;;;5068655;28;20475;-75
2021/06/11 00:12:39;;;;;;;6.60;6.10;;;21.90;91.80;;;;;;5070369;28;20234;-75
2021/06/11 00:15:07;;;;;;;6.60;6.10;;;21.90;91.70;;;;;;5031826;28;20457;-74
2021/06/11 00:17:33;;;;;;;8.13;7.47;;;21.80;91.80;;;;;;5074231;28;20476;-74
2021/06/11 00:19:58;;;;;;;7.33;6.70;;;21.70;91.80;;;;;;5068285;28;20456;-74
2021/06/11 00:22:24;;;;;;;6.87;6.37;;;21.70;91.90;;;;;;5069737;28;20215;-74
2021/06/11 00:24:50;;;;;;;6.90;6.30;;;21.60;92.00;;;;;;5054005;28;20600;-75
2021/06/11 00:27:15;;;;;;;6.97;6.37;;;21.70;92.10;;;;;;5068363;28;20766;-75
2021/06/11 00:29:41;;;;;;;6.13;5.70;;;21.70;92.10;;;;;;5070090;28;20225;-74
2021/06/11 00:32:07;;;;;;;7.43;6.70;;;21.70;92.10;;;;;;5051602;28;20692;-75
2021/06/11 00:34:33;;;;;;;8.00;7.30;;;21.70;92.00;;;;;;5069633;28;20214;-75
2021/06/11 00:36:58;;;;;;;7.40;6.80;;;21.70;92.00;;;;;;5068231;28;20246;-74
2021/06/11 00:39:24;;;;;;;6.93;6.43;;;21.60;92.00;;;;;;5049491;28;20297;-74
2021/06/11 00:41:50;;;;;;;6.90;6.30;;;21.60;92.10;;;;;;5086554;28;20256;-74
2021/06/11 00:44:15;;;;;;;6.77;6.17;;;21.50;92.00;;;;;;5084459;28;20214;-74
2021/06/11 00:46:41;;;;;;;6.77;6.27;;;21.50;92.20;;;;;;5069987;28;20226;-74
2021/06/11 00:49:07;;;;;;;6.80;6.20;;;21.50;92.10;;;;;;5051349;28;20226;-74
2021/06/11 00:51:32;;;;;;;6.83;6.23;;;21.50;92.10;;;;;;5069852;28;20222;-75
2021/06/11 00:53:58;;;;;;;6.57;6.00;;;21.50;92.10;;;;;;5066747;28;20238;-74
2021/06/11 00:56:24;;;;;;;6.13;5.63;;;21.50;92.10;;;;;;5066619;28;20257;-75
2021/06/11 00:58:50;;;;;;;6.43;5.90;;;21.50;92.10;;;;;;5055240;28;20579;-74
2021/06/11 01:01:16;;;;;;;6.83;6.37;;;21.50;92.20;;;;;;5064453;28;20261;-75
2021/06/11 01:03:41;;;;;;;6.63;6.03;;;21.40;92.20;;;;;;5032998;28;20830;-74
2021/06/11 01:06:07;;;;;;;7.33;6.63;;;21.40;92.40;;;;;;5048520;28;20267;-74
2021/06/11 01:08:33;;;;;;;6.47;5.97;;;21.30;92.30;;;;;;5069542;28;20688;-74
2021/06/11 01:10:59;;;;;;;7.00;6.40;;;21.30;92.30;;;;;;5085508;28;20218;-74
2021/06/11 01:13:26;;;;;;;6.50;6.00;;;21.30;92.30;;;;;;5069521;28;20328;-74
2021/06/11 01:15:52;;;;;;;6.73;6.23;;;21.30;92.30;;;;;;5086733;28;20459;-75
2021/06/11 01:18:19;;;;;;;6.87;6.37;;;21.30;92.50;;;;;;5067555;28;20476;-74
2021/06/11 01:20:46;;;;;;;6.23;5.70;;;21.30;92.40;;;;;;5049885;28;20479;-74
2021/06/11 01:23:15;;;;;;;6.60;6.00;;;21.30;92.40;;;;;;5067555;28;20460;-75
2021/06/11 01:26:09;;;;;;;7.50;6.90;;;21.30;92.50;;;;;;5069713;28;20455;-75
2021/06/11 01:28:35;;;;;;;7.70;7.00;;;21.20;92.50;;;;;;5069581;28;20525;-74
2021/06/11 01:31:02;;;;;;;7.60;6.93;;;21.20;92.50;;;;;;5051539;28;20464;-74
2021/06/11 01:33:31;;;;;;;7.50;6.80;;;21.20;92.60;;;;;;5068880;28;20453;-74
2021/06/11 01:36:03;;;;;;;7.53;6.93;;;21.20;92.60;;;;;;5068217;28;20456;-74
2021/06/11 01:38:36;;;;;;;7.10;6.50;;;21.10;92.60;;;;;;5069403;28;20472;-74
2021/06/11 01:41:04;;;;;;;6.90;6.43;;;21.10;92.70;;;;;;5067872;28;20487;-74
2021/06/11 01:43:31;;;;;;;7.20;6.60;;;21.10;92.70;;;;;;5087396;28;20491;-74
2021/06/11 01:45:57;;;;;;;7.57;6.77;;;21.10;92.80;;;;;;5050061;28;20461;-74
2021/06/11 01:48:24;;;;;;;6.83;6.30;;;21.00;92.80;;;;;;5069102;28;20464;-74
2021/06/11 01:50:51;;;;;;;6.57;6.07;;;21.00;92.80;;;;;;5071565;28;20708;-74
2021/06/11 01:53:19;;;;;;;7.10;6.60;;;20.90;92.90;;;;;;5071637;28;20453;-75
2021/06/11 01:55:47;;;;;;;7.33;6.37;;;20.90;92.90;;;;;;5092253;28;20464;-74
2021/06/11 01:58:16;;;;;;;6.77;6.27;;;20.90;92.90;;;;;;5086848;28;20480;-75
2021/06/11 02:00:42;;;;;;;5.70;5.30;;;20.90;92.90;;;;;;5053341;28;20457;-75
2021/06/11 02:03:08;;;;;;;7.20;6.60;;;20.90;92.90;;;;;;5068348;28;20468;-75
2021/06/11 02:05:34;;;;;;;7.30;6.57;;;20.90;92.90;;;;;;5089763;28;20483;-75
2021/06/11 02:08:01;;;;;;;6.13;5.63;;;20.90;92.90;;;;;;5053874;28;20246;-76
2021/06/11 02:10:27;;;;;;;6.80;6.20;;;20.80;92.90;;;;;;5068911;28;20453;-74
2021/06/11 02:12:53;;;;;;;6.80;6.20;;;20.80;92.90;;;;;;5062269;28;20464;-74
2021/06/11 02:15:20;;;;;;;7.00;6.50;;;20.80;93.00;;;;;;5072458;28;20218;-74
2021/06/11 02:17:47;;;;;;;8.13;7.43;;;20.70;93.10;;;;;;5055363;28;20484;-74
2021/06/11 02:20:20;;;;;;;7.83;7.17;;;20.70;93.10;;;;;;5050565;28;21620;-74
2021/06/11 02:22:46;;;;;;;8.07;7.37;;;20.60;93.20;;;;;;5056544;28;20877;-74
2021/06/11 02:25:19;;;;;;;7.00;6.50;;;20.60;93.40;;;;;;5070465;28;20460;-74
2021/06/11 02:27:46;;;;;;;7.60;6.90;;;20.50;93.50;;;;;;5073120;28;20546;-74
2021/06/11 02:30:15;;;;;;;7.60;7.00;;;20.50;93.50;;;;;;5087300;28;20468;-75
2021/06/11 02:32:41;;;;;;;7.70;7.10;;;20.50;93.50;;;;;;5055650;28;20461;-73
2021/06/11 02:35:14;;;;;;;8.10;7.40;;;20.50;93.50;;;;;;5053980;28;20963;-73
2021/06/11 02:37:40;;;;;;;8.00;7.20;;;20.40;93.50;;;;;;5088151;28;20349;-74
2021/06/11 02:40:08;;;;;;;8.37;7.70;;;20.40;93.60;;;;;;5050721;28;20464;-73
2021/06/11 02:42:34;;;;;;;7.87;7.07;;;20.40;93.60;;;;;;5035162;28;20468;-74
2021/06/11 02:45:07;;;;;;;7.73;7.10;;;20.40;93.70;;;;;;5085320;28;20469;-73
2021/06/11 02:47:48;;;;;;;7.67;7.07;;;20.40;93.80;;;;;;5088247;28;20492;-73
2021/06/11 02:50:21;;;;;;;6.83;6.23;;;20.30;93.80;;;;;;5062798;28;20794;-73
2021/06/11 02:52:50;;;;;;;7.30;6.70;;;20.40;93.90;;;;;;5071455;28;20464;-74
2021/06/11 02:55:17;;;;;;;7.10;6.50;;;20.30;93.90;;;;;;5069969;28;20464;-73
2021/06/11 02:58:16;;;;;;;7.00;6.40;;;20.30;94.00;;;;;;5071138;28;20500;-73
2021/06/11 03:00:43;;;;;;;7.27;6.67;;;20.30;94.00;;;;;;5085146;28;20864;-74
2021/06/11 03:03:21;;;;;;;7.70;7.10;;;20.20;94.10;;;;;;5053171;28;20456;-73
2021/06/11 03:05:51;;;;;;;7.17;6.57;;;20.20;94.20;;;;;;5088522;28;20456;-73
2021/06/11 03:08:22;;;;;;;7.00;6.47;;;20.20;94.20;;;;;;5085959;28;20457;-74
2021/06/11 03:10:52;;;;;;;7.57;6.97;;;20.20;94.20;;;;;;5071078;28;20467;-74
2021/06/11 03:13:18;;;;;;;6.57;6.00;;;20.20;94.20;;;;;;5060131;28;21062;-73
2021/06/11 03:15:45;;;;;;;7.47;6.83;;;20.10;94.20;;;;;;5071234;28;20456;-73
2021/06/11 03:18:38;;;;;;;7.10;6.50;;;20.10;94.20;;;;;;5085600;28;20854;-74
2021/06/11 03:21:19;;;;;;;7.23;6.53;;;20.10;94.30;;;;;;5050303;28;20457;-73
2021/06/11 03:23:50;;;;;;;6.67;6.17;;;20.00;94.30;;;;;;5077401;28;20457;-73
2021/06/11 03:26:22;;;;;;;7.57;6.97;;;20.10;94.40;;;;;;5067009;28;20441;-73
2021/06/11 03:28:52;;;;;;;8.03;7.30;;;20.00;94.40;;;;;;5086896;28;20471;-73
2021/06/11 03:31:25;;;;;;;7.67;7.07;;;20.00;94.40;;;;;;5069557;28;20460;-73
2021/06/11 03:33:56;;;;;;;7.90;7.20;;;20.00;94.40;;;;;;5070872;28;20464;-74
2021/06/11 03:36:27;;;;;;;6.63;6.13;;;19.90;94.40;;;;;;5070845;28;21000;-73
2021/06/11 03:38:57;;;;;;;7.00;6.30;;;19.90;94.50;;;;;;5070331;28;20807;-74
2021/06/11 03:41:23;;;;;;;6.13;5.73;;;19.80;94.60;;;;;;5060678;28;20472;-74
2021/06/11 03:43:50;;;;;;;7.13;6.53;;;19.80;94.70;;;;;;5067506;28;20453;-73
2021/06/11 03:46:17;;;;;;;6.80;6.30;;;19.70;94.60;;;;;;5062674;28;20222;-73
2021/06/11 03:48:51;;;;;;;6.90;6.30;;;19.70;94.70;;;;;;5045310;28;20454;-73
2021/06/11 03:51:19;;;;;;;6.50;5.90;;;19.70;94.80;;;;;;5066522;28;20494;-73
2021/06/11 03:53:45;;;;;;;6.83;6.20;;;19.70;94.80;;;;;;5053469;28;20452;-73
2021/06/11 03:56:12;;;;;;;8.00;7.00;;;19.70;94.90;;;;;;5068769;28;20506;-75
2021/06/11 03:58:49;;;;;;;7.63;6.93;;;19.60;95.10;;;;;;5069136;28;20476;-73
2021/06/11 04:01:22;;;;;;;7.17;6.60;;;19.40;95.60;;;;;;5068709;28;20908;-73
2021/06/11 04:03:48;;;;;;;6.90;6.30;;;19.20;95.90;;;;;;5037574;28;20548;-74
2021/06/11 04:06:20;;;;;;;6.90;6.30;;;19.40;95.70;;;;;;5052463;28;20461;-74
2021/06/11 04:09:00;;;;;;;6.70;6.03;;;19.40;95.60;;;;;;5055567;28;20219;-74
2021/06/11 04:11:30;;;;;;;6.57;6.00;;;19.50;95.60;;;;;;5052920;28;20453;-73
2021/06/11 04:13:59;;;;;;;7.43;6.73;;;19.60;95.60;;;;;;5087630;28;20453;-73
2021/06/11 04:16:38;;;;;;;8.23;7.43;;;19.60;95.60;;;;;;5056862;28;20453;-73
2021/06/11 04:19:09;;;;;;;6.53;5.93;;;19.60;95.50;;;;;;5072678;28;20460;-74
2021/06/11 04:21:35;;;;;;;7.17;6.47;;;19.60;95.40;;;;;;5056831;28;20440;-73
2021/06/11 04:24:08;;;;;;;7.43;6.83;;;19.60;95.30;;;;;;5055850;28;20451;-73
2021/06/11 04:26:37;;;;;;;7.10;6.53;;;19.60;95.40;;;;;;5088639;28;20222;-73
2021/06/11 04:29:08;;;;;;;7.67;6.97;;;19.60;95.50;;;;;;5055904;28;20437;-74
2021/06/11 04:31:34;;;;;;;7.60;7.00;;;19.60;95.60;;;;;;5089992;28;20445;-73
2021/06/11 04:33:59;;;;;;;6.83;6.33;;;19.60;95.50;;;;;;5072222;28;20440;-73
2021/06/11 04:36:27;;;;;;;7.40;6.60;;;19.60;95.70;;;;;;5044127;28;20273;-73
2021/06/11 04:39:09;;;;;;;6.83;6.23;;;19.60;95.80;;;;;;5085182;28;20309;-73
2021/06/11 04:41:36;;;;;;;9.00;6.90;;;19.70;95.80;;;;;;5072796;28;20535;-73
2021/06/11 04:44:05;;;;;;;7.73;6.80;;;19.70;95.80;;;;;;5088416;28;20441;-73
2021/06/11 04:46:31;;;;;;;8.40;7.60;;;19.70;95.90;;;;;;5071138;28;20465;-73
2021/06/11 04:49:31;;;;;;;6.90;6.33;;;19.70;96.00;;;;;;5068783;28;21073;-73
2021/06/11 04:51:57;;;;;;;6.90;6.40;;;19.70;96.00;;;;;;5071699;28;20305;-73
2021/06/11 04:54:22;;;;;;;8.07;7.37;;;19.70;96.00;;;;;;5052082;28;20505;-73
2021/06/11 04:56:48;;;;;;;7.57;6.97;;;19.70;96.00;;;;;;5062813;28;20762;-73
2021/06/11 04:59:14;;;;;;;7.13;6.53;;;19.70;96.20;;;;;;5050784;28;20227;-73
2021/06/11 05:01:40;;;;;;;6.73;6.13;;;19.80;96.40;;;;;;5047147;28;20226;-74
2021/06/11 05:04:05;;;;;;;8.00;7.30;;;19.80;96.30;;;;;;5088436;28;20689;-73
2021/06/11 05:06:31;;;;;;;7.83;6.60;;;19.80;96.20;;;;;;5073090;28;20463;-74
2021/06/11 05:08:57;;;;;;;8.03;7.23;;;19.80;96.30;;;;;;5055199;28;20218;-74
2021/06/11 05:11:23;;;;;;;6.60;6.10;;;19.90;96.60;;;;;;5055252;28;20215;-74
2021/06/11 05:13:49;;;;;;;7.00;6.40;;;19.90;96.50;;;;;;5072107;28;20211;-74
2021/06/11 05:16:14;;;;;;;7.00;6.40;;;19.80;96.30;;;;;;5088628;28;20865;-74
2021/06/11 05:18:40;;;;;;;6.40;5.80;;;19.90;96.40;;;;;;5038666;28;20325;-73
2021/06/11 05:21:06;;;;;;;6.80;6.20;;;19.90;96.40;;;;;;5072087;28;20215;-74
2021/06/11 05:23:32;;;;;;;6.40;5.80;;;19.90;96.50;;;;;;5071982;28;20322;-73
2021/06/11 05:25:58;;;;;;;6.30;5.77;;;19.90;96.50;;;;;;5072792;28;20245;-73
2021/06/11 05:28:24;;;;;;;6.67;6.07;;;20.00;96.60;;;;;;5082477;28;20302;-76
2021/06/11 05:30:52;;;;;;;6.70;6.10;;;20.00;96.60;;;;;;5053949;28;20533;-75
2021/06/11 05:33:18;;;;;;;6.37;5.83;;;20.00;96.60;;;;;;5072030;28;20239;-75
2021/06/11 05:35:44;;;;;;;7.50;6.13;;;20.00;96.70;;;;;;5072644;28;20525;-75
2021/06/11 05:38:11;;;;;;;10.73;6.93;;;20.10;97.00;;;;;;5071008;28;20984;-74
2021/06/11 05:40:38;;;;;;;6.60;6.00;;;20.20;97.00;;;;;;5077959;28;20210;-74
2021/06/11 05:43:04;;;;;;;7.73;6.07;;;20.20;97.60;;;;;;5058768;28;20944;-75
2021/06/11 05:45:30;;;;;;;7.17;6.57;;;20.20;97.50;;;;;;5090623;28;20502;-75
2021/06/11 05:47:57;;;;;;;8.43;6.37;;;20.30;97.60;;;;;;5107960;28;20664;-75
2021/06/11 05:50:26;;;;;;;6.97;6.47;;;20.40;97.50;;;;;;5091308;28;20501;-75
2021/06/11 05:52:52;;;;;;;7.07;6.50;;;20.40;97.50;;;;;;5091276;28;20831;-75
2021/06/11 05:55:18;;;;;;;7.77;6.97;;;20.40;97.60;;;;;;5090928;28;20475;-75
2021/06/11 05:57:44;;;;;;;7.40;6.70;;;20.50;97.80;;;;;;5073218;28;20484;-74
2021/06/11 06:00:10;;;;;;;7.13;6.43;;;20.50;98.10;;;;;;5062182;28;20688;-75
2021/06/11 06:02:36;;;;;;;9.00;8.10;;;20.60;97.80;;;;;;5104690;28;20211;-75
2021/06/11 06:05:03;;;;;;;7.83;6.43;;;20.60;98.20;;;;;;5089573;28;20596;-75
2021/06/11 06:07:28;;;;;;;6.50;5.90;;;20.70;98.50;;;;;;5082279;28;20219;-75
2021/06/11 06:09:55;;;;;;;7.30;6.70;;;20.90;98.90;;;;;;5056092;28;20455;-75
2021/06/11 06:12:20;;;;;;;8.43;7.20;;;21.00;99.20;;;;;;5057252;28;20701;-75
2021/06/11 06:14:46;;;;;;;6.87;6.27;;;21.00;99.20;;;;;;5056696;28;20441;-75
2021/06/11 06:17:12;;;;;;;7.27;6.60;;;21.10;99.40;;;;;;5088482;28;20590;-75
2021/06/11 06:19:37;;;;;;;6.70;6.20;;;21.20;99.50;;;;;;5057580;28;20608;-75
2021/06/11 06:22:03;;;;;;;7.40;6.80;;;21.30;99.50;;;;;;5067992;28;20633;-75
2021/06/11 06:24:29;;;;;;;6.90;6.40;;;21.30;99.70;;;;;;5070975;28;20218;-74
2021/06/11 06:26:55;;;;;;;8.60;8.00;;;21.40;99.90;;;;;;5089584;28;20222;-75
2021/06/11 06:29:20;;;;;;;6.40;5.90;;;21.50;99.90;;;;;;5055494;28;20697;-75
2021/06/11 06:31:47;;;;;;;7.00;6.50;;;21.50;99.80;;;;;;5071216;28;20207;-75
2021/06/11 06:34:13;;;;;;;5.80;5.40;;;21.60;99.90;;;;;;5097942;28;20219;-75
2021/06/11 06:36:39;;;;;;;6.33;5.83;;;21.60;99.90;;;;;;5089186;28;20464;-75
2021/06/11 06:39:07;;;;;;;6.67;6.17;;;21.70;99.90;;;;;;5087538;28;20448;-75
2021/06/11 06:41:33;;;;;;;6.20;5.73;;;21.80;99.90;;;;;;5074162;28;20702;-75
2021/06/11 06:43:58;;;;;;;6.97;6.33;;;21.90;99.90;;;;;;5074280;28;20451;-75
2021/06/11 06:46:24;;;;;;;6.60;6.10;;;21.90;99.90;;;;;;5070544;28;20783;-75
2021/06/11 06:48:51;;;;;;;7.77;7.07;;;22.00;99.90;;;;;;5060618;28;20669;-75
2021/06/11 06:51:19;;;;;;;7.00;6.40;;;22.20;99.90;;;;;;5057366;28;20268;-74
2021/06/11 06:53:45;;;;;;;6.47;5.87;;;22.30;99.90;;;;;;5083072;28;20506;-76
2021/06/11 06:56:11;;;;;;;7.10;6.50;;;22.40;99.90;;;;;;5036523;28;20886;-75
2021/06/11 06:58:37;;;;;;;6.10;5.60;;;22.50;99.90;;;;;;5054917;28;20489;-75
2021/06/11 07:01:06;;;;;;;5.50;5.10;;;22.60;99.90;;;;;;5071937;28;20689;-75
2021/06/11 07:03:32;;;;;;;6.77;6.07;;;22.70;99.90;;;;;;5076554;28;20297;-76
2021/06/11 07:05:58;;;;;;;6.57;6.07;;;22.80;99.90;;;;;;5067146;28;20481;-75
2021/06/11 07:08:31;;;;;;;6.87;6.37;;;22.80;99.90;;;;;;5069531;28;20498;-74
2021/06/11 07:10:58;;;;;;;6.70;6.10;;;22.90;99.90;;;;;;5067852;28;20460;-75
2021/06/11 07:13:24;;;;;;;6.07;5.57;;;23.00;99.90;;;;;;5089568;28;20520;-76
2021/06/11 07:15:51;;;;;;;5.80;5.40;;;23.10;99.90;;;;;;5080173;28;20560;-77
2021/06/11 07:18:17;;;;;;;6.50;5.90;;;23.20;99.90;;;;;;5069297;28;20218;-75
2021/06/11 07:20:43;;;;;;;6.30;5.80;;;23.30;99.90;;;;;;5052796;28;20453;-75
2021/06/11 07:23:09;;;;;;;6.90;6.30;;;23.40;99.90;;;;;;5075274;28;20484;-76
2021/06/11 07:25:35;;;;;;;5.80;5.40;;;23.40;99.90;;;;;;5084907;28;20228;-75
2021/06/11 07:28:00;;;;;;;6.13;5.63;;;23.50;99.90;;;;;;5066741;28;20452;-75
2021/06/11 07:30:26;;;;;;;6.03;5.43;;;23.50;99.90;;;;;;5071429;28;20303;-76
2021/06/11 07:32:51;;;;;;;6.40;5.83;;;23.70;99.90;;;;;;5105177;28;20229;-76
2021/06/11 07:35:18;;;;;;;7.90;6.33;;;23.70;99.90;;;;;;5089073;28;20320;-74
2021/06/11 07:37:44;;;;;;;7.20;6.50;;;23.70;99.90;;;;;;5072779;28;20244;-75
2021/06/11 07:40:11;;;;;;;5.70;5.20;;;23.80;99.90;;;;;;5087895;28;20832;-74
2021/06/11 07:42:37;;;;;;;10.57;5.73;;;23.90;99.90;;;;;;5095038;28;20240;-75
2021/06/11 07:45:05;;;;;;;6.60;5.70;;;24.00;99.90;;;;;;5055034;28;20460;-75
2021/06/11 07:47:31;;;;;;;5.67;5.27;;;24.00;99.90;;;;;;5071293;28;20221;-75
2021/06/11 07:49:57;;;;;;;5.77;5.27;;;24.00;99.90;;;;;;5088263;28;20483;-75
2021/06/11 07:52:22;;;;;;;6.00;5.43;;;24.10;99.90;;;;;;5086576;28;20218;-75
2021/06/11 07:54:48;;;;;;;6.20;5.60;;;24.20;99.90;;;;;;5049933;28;20713;-75
2021/06/11 07:57:14;;;;;;;6.40;5.80;;;24.40;99.90;;;;;;5053231;28;20225;-75
2021/06/11 07:59:41;;;;;;;5.70;5.20;;;24.50;99.90;;;;;;5070495;28;20686;-75
2021/06/11 08:02:07;;;;;;;6.30;5.70;;;24.60;99.90;;;;;;5081544;28;20224;-75
2021/06/11 08:04:32;;;;;;;5.57;5.10;;;24.70;99.90;;;;;;5086699;28;20444;-75
2021/06/11 08:06:58;;;;;;;5.27;4.83;;;24.80;99.90;;;;;;5087021;28;20214;-75
2021/06/11 08:09:25;;;;;;;7.00;6.40;;;24.90;99.90;;;;;;5070089;28;20665;-75
2021/06/11 08:11:51;;;;;;;6.43;5.83;;;25.10;99.90;;;;;;5075447;28;20275;-76
2021/06/11 08:14:17;;;;;;;5.90;5.40;;;25.20;99.90;;;;;;5073871;28;21027;-75
2021/06/11 08:16:42;;;;;;;6.03;5.43;;;25.30;99.90;;;;;;5087689;28;20241;-76
2021/06/11 08:19:08;;;;;;;5.33;4.93;;;25.40;99.80;;;;;;5087619;28;20257;-76
2021/06/11 08:21:34;;;;;;;5.60;5.20;;;25.50;99.50;;;;;;5087613;28;20285;-76
2021/06/11 08:23:59;;;;;;;5.53;5.13;;;25.50;99.10;;;;;;5069497;28;20267;-75
2021/06/11 08:26:25;;;;;;;5.67;5.27;;;25.50;99.00;;;;;;5085322;28;20712;-75
2021/06/11 08:28:51;;;;;;;6.27;5.80;;;25.60;99.20;;;;;;5053077;28;20239;-76
2021/06/11 08:31:16;;;;;;;6.10;5.70;;;25.80;99.40;;;;;;5069722;28;20717;-75
2021/06/11 08:33:46;;;;;;;6.60;6.10;;;25.90;99.50;;;;;;5087332;28;20218;-76
2021/06/11 08:36:11;;;;;;;6.10;5.70;;;26.00;99.50;;;;;;5084986;28;20206;-75
2021/06/11 08:38:37;;;;;;;7.30;6.60;;;26.00;99.20;;;;;;5065981;28;20468;-75
2021/06/11 08:41:03;;;;;;;6.27;5.77;;;26.10;99.60;;;;;;5032923;28;20702;-76
2021/06/11 08:43:29;;;;;;;6.77;6.13;;;26.20;99.80;;;;;;5074732;28;20226;-75
2021/06/11 08:45:56;;;;;;;7.00;6.57;;;26.30;99.10;;;;;;5082821;28;20214;-75
2021/06/11 08:48:22;;;;;;;6.10;5.60;;;26.40;99.10;;;;;;5084911;28;20448;-75
2021/06/11 08:50:48;;;;;;;6.60;6.10;;;26.30;99.30;;;;;;5069435;28;20887;-75
2021/06/11 08:53:13;;;;;;;6.87;6.37;;;26.40;99.30;;;;;;5087477;28;20447;-75
2021/06/11 08:55:39;;;;;;;6.93;6.33;;;26.50;99.50;;;;;;5100966;28;20220;-76
2021/06/11 08:58:05;;;;;;;7.10;6.50;;;26.60;99.30;;;;;;5065295;28;20230;-75
2021/06/11 09:00:32;;;;;;;6.80;6.17;;;26.70;99.40;;;;;;5064141;28;20624;-76
2021/06/11 09:03:20;;;;;;;6.60;6.00;;;26.70;99.30;;;;;;5092184;28;20448;-74
2021/06/11 09:06:05;;;;;;;6.97;6.47;;;26.90;99.40;;;;;;5094189;28;20475;-76
2021/06/11 09:08:32;;;;;;;6.30;5.80;;;27.00;99.10;;;;;;5072297;28;20460;-76
2021/06/11 09:11:12;;;;;;;6.70;6.17;;;27.10;99.10;;;;;;5073839;27;20463;-75
2021/06/11 09:13:42;;;;;;;7.40;6.77;;;27.20;98.40;;;;;;5099065;28;20506;-76
2021/06/11 09:16:10;;;;;;;7.67;7.07;;;27.20;98.20;;;;;;5089149;28;20470;-76
2021/06/11 09:18:47;;;;;;;5.93;5.53;;;27.20;98.30;;;;;;5092420;28;20535;-76
2021/06/11 09:21:27;;;;;;;6.17;5.77;;;27.40;98.20;;;;;;5086561;28;20530;-75
2021/06/11 09:29:41;;;;;;;6.20;5.60;;;27.70;97.60;;;;;;5093836;28;20455;-76
2021/06/11 09:32:21;;;;;;;6.77;6.17;;;27.70;97.30;;;;;;5093523;28;20591;-76
2021/06/11 09:34:50;;;;;;;6.23;5.73;;;27.80;97.20;;;;;;5060703;28;20486;-76
2021/06/11 09:37:18;;;;;;;5.90;5.40;;;28.00;97.00;;;;;;5093990;28;20471;-74
2021/06/11 09:39:46;;;;;;;6.97;6.30;;;28.10;96.70;;;;;;5094609;28;20507;-75
2021/06/11 09:42:16;;;;;;;6.27;5.73;;;28.20;96.70;;;;;;5061437;28;20597;-76
2021/06/11 09:44:49;;;;;;;6.30;5.87;;;28.10;95.40;;;;;;5094721;28;20457;-76
2021/06/11 09:47:36;;;;;;;5.60;5.20;;;28.10;96.10;;;;;;5094383;28;20697;-76
2021/06/11 09:50:15;;;;;;;5.87;5.43;;;28.10;96.30;;;;;;5092571;28;20709;-76
2021/06/11 09:52:52;;;;;;;4.90;4.60;;;28.20;95.40;;;;;;5075965;28;20300;-75
2021/06/11 09:55:36;;;;;;;7.13;4.85;;;28.30;95.80;;;;;;5089922;28;20290;-76
2021/06/11 09:58:04;;;;;;;5.85;5.45;;;28.40;95.30;;;;;;5088237;28;20217;-75
2021/06/11 10:00:31;;;;;;;10.47;5.87;;;28.50;95.40;;;;;;5082748;28;20589;-75
2021/06/11 10:03:01;;;;;;;5.93;5.37;;;28.50;95.00;;;;;;5090597;28;20213;-76
2021/06/11 10:05:30;;;;;;;5.88;5.47;;;28.70;95.40;;;;;;5091814;28;20528;-76
2021/06/11 10:07:57;;;;;;;5.97;5.25;;;28.80;94.90;;;;;;5093033;28;20217;-76
2021/06/11 10:10:22;;;;;;;5.23;4.83;;;28.90;95.10;;;;;;5088156;28;20229;-76
2021/06/11 10:12:48;;;;;;;5.85;5.40;;;29.10;94.60;;;;;;5041656;28;20590;-76
2021/06/11 10:15:15;;;;;;;5.47;5.07;;;29.20;94.60;;;;;;5057192;28;20288;-76
2021/06/11 10:17:42;;;;;;;5.47;4.97;;;29.10;93.20;;;;;;5077942;28;20368;-76
2021/06/11 10:20:10;;;;;;;5.65;5.15;;;29.00;93.70;;;;;;5080435;28;20634;-75
2021/06/11 10:22:37;;;;;;;6.18;5.68;;;29.00;93.80;;;;;;5066908;28;20222;-76
2021/06/11 10:25:05;;;;;;;6.10;4.45;;;29.00;93.10;;;;;;5051570;28;20248;-75
2021/06/11 10:27:31;;;;;;;6.13;5.57;;;29.00;93.70;;;;;;5047653;28;20242;-76
2021/06/11 10:29:57;;;;;;;5.32;4.65;;;29.10;93.70;;;;;;5062625;28;20271;-76
2021/06/11 10:32:23;;;;;;;5.32;4.07;;;29.20;93.90;;;;;;5061655;28;20218;-75
2021/06/11 10:34:54;;;;;;;8.50;7.90;;;29.30;93.00;;;;;;5045457;28;20705;-75
2021/06/11 10:37:35;;;;;;;5.75;5.35;;;29.30;92.70;;;;;;5071819;28;20221;-76
2021/06/11 10:40:20;;;;;;;5.38;4.97;;;29.50;92.70;;;;;;5087957;28;20228;-75
2021/06/11 10:42:46;;;;;;;5.10;4.70;;;29.60;92.00;;;;;;5088508;28;20240;-76
2021/06/11 10:45:15;;;;;;;6.13;5.00;;;29.60;92.30;;;;;;5067882;28;20678;-75
2021/06/11 10:47:58;;;;;;;5.95;5.35;;;29.60;92.10;;;;;;5084424;28;20230;-76
2021/06/11 10:50:32;;;;;;;5.25;4.85;;;29.60;92.10;;;;;;5051211;28;20218;-75
2021/06/11 10:53:27;;;;;;;5.55;5.05;;;29.50;91.60;;;;;;5069693;28;20226;-76
2021/06/11 10:56:12;;;;;;;4.88;4.57;;;29.50;91.40;;;;;;5086449;28;20309;-75
2021/06/11 10:58:40;;;;;;;4.22;3.92;;;29.60;91.10;;;;;;5069061;28;20455;-76
2021/06/11 11:01:26;;;;;;;4.68;4.20;;;29.80;91.90;;;;;;5067602;28;20229;-75
2021/06/11 11:03:53;;;;;;;4.60;4.30;;;29.90;92.20;;;;;;5078646;28;20279;-75
2021/06/11 11:06:28;;;;;;;4.97;4.57;;;30.10;91.50;;;;;;5086229;28;20772;-76
2021/06/11 11:08:56;;;;;;;4.07;3.83;;;30.20;91.40;;;;;;5084904;28;20217;-76
2021/06/11 11:11:41;;;;;;;5.15;4.80;;;30.30;91.50;;;;;;5054483;28;20226;-76
2021/06/11 11:14:30;;;;;;;4.40;4.10;;;30.50;91.70;;;;;;5066537;28;20333;-76
2021/06/11 11:16:59;;;;;;;5.15;4.65;;;30.70;90.40;;;;;;5084955;28;20233;-76
2021/06/11 11:19:54;;;;;;;4.22;3.92;;;30.90;90.10;;;;;;5069017;28;20234;-75
2021/06/11 11:22:32;;;;;;;4.80;4.50;;;31.00;90.30;;;;;;5083046;28;20688;-75
2021/06/11 11:25:02;;;;;;;4.78;4.38;;;31.00;90.20;;;;;;5085584;28;20762;-77
2021/06/11 11:27:28;;;;;;;4.43;4.05;;;31.10;90.20;;;;;;5087722;28;20246;-76
2021/06/11 11:29:55;;;;;;;4.50;4.20;;;31.20;89.60;;;;;;5087988;28;20206;-76
2021/06/11 11:32:21;;;;;;;4.45;4.05;;;31.20;88.70;;;;;;5069644;28;20214;-77
2021/06/11 11:34:47;;;;;;;4.40;4.05;;;31.20;89.70;;;;;;5071187;28;20217;-76
2021/06/11 11:37:14;;;;;;;5.03;4.65;;;31.30;89.90;;;;;;5054440;28;20214;-76
2021/06/11 11:39:40;;;;;;;5.13;4.63;;;31.40;89.60;;;;;;5089125;28;20206;-77
2021/06/11 11:42:07;;;;;;;4.47;4.18;;;31.40;89.30;;;;;;5089001;28;20218;-76
2021/06/11 11:44:33;;;;;;;4.20;3.90;;;31.40;90.00;;;;;;5091612;28;20698;-76
2021/06/11 11:47:00;;;;;;;4.00;3.80;;;31.50;88.80;;;;;;5092597;28;20236;-76
2021/06/11 11:49:26;;;;;;;4.75;4.45;;;31.50;88.30;;;;;;5069998;28;20221;-76
2021/06/11 11:51:51;;;;;;;4.25;3.97;;;31.40;88.00;;;;;;5071592;28;20366;-77
2021/06/11 11:54:17;;;;;;;5.07;4.35;;;31.40;87.50;;;;;;5054194;28;20238;-76
2021/06/11 11:56:43;;;;;;;4.88;4.57;;;31.30;87.50;;;;;;5087232;28;20267;-77
2021/06/11 11:59:09;;;;;;;4.75;4.43;;;31.40;87.90;;;;;;5069525;28;20713;-76
2021/06/11 12:01:39;;;;;;;4.68;4.38;;;31.30;87.70;;;;;;5069855;28;20294;-77
2021/06/11 12:04:06;;;;;;;4.78;4.40;;;31.40;87.80;;;;;;5085152;28;20313;-76
2021/06/11 12:06:32;;;;;;;4.47;4.10;;;31.40;86.90;;;;;;5084515;28;20225;-76
2021/06/11 12:08:58;;;;;;;4.85;4.05;;;31.50;87.60;;;;;;5086369;28;20229;-76
2021/06/11 12:11:23;;;;;;;4.50;4.20;;;31.60;86.70;;;;;;5086690;28;20305;-76
2021/06/11 12:13:49;;;;;;;6.05;4.55;;;31.80;86.80;;;;;;5069805;28;20344;-76
2021/06/11 12:16:16;;;;;;;4.38;4.07;;;31.70;85.90;;;;;;5065190;28;20309;-77
2021/06/11 12:18:42;;;;;;;4.38;4.07;;;31.70;85.60;;;;;;5067745;28;20400;-77
2021/06/11 12:21:09;;;;;;;5.15;4.55;;;31.70;86.20;;;;;;5087132;28;20231;-76
2021/06/11 12:23:38;;;;;;;4.82;4.53;;;31.80;85.90;;;;;;5086378;28;20220;-76
2021/06/11 12:26:04;;;;;;;4.72;4.32;;;32.00;85.10;;;;;;5066937;28;20214;-77
2021/06/11 12:28:29;;;;;;;4.60;4.30;;;32.00;84.30;;;;;;5077215;28;20210;-76
2021/06/11 12:30:55;;;;;;;4.72;4.43;;;31.90;84.70;;;;;;5082016;28;20214;-77
2021/06/11 12:33:21;;;;;;;4.63;4.32;;;31.90;85.10;;;;;;5053017;28;20290;-77
2021/06/11 12:35:48;;;;;;;5.30;4.85;;;31.80;84.00;;;;;;5086383;28;20229;-76
2021/06/11 12:38:15;;;;;;;5.22;4.85;;;31.70;84.40;;;;;;5071861;28;20317;-77
2021/06/11 12:40:44;;;;;;;5.70;5.20;;;31.50;84.30;;;;;;5086578;28;20214;-77
2021/06/11 12:43:14;;;;;;;6.47;5.60;;;31.40;84.40;;;;;;5079952;28;20221;-77
2021/06/11 12:45:42;;;;;;;4.57;4.28;;;31.40;84.70;;;;;;5061042;28;20630;-77
2021/06/11 12:48:11;;;;;;;4.68;4.25;;;31.50;85.40;;;;;;5067328;28;20307;-77
2021/06/11 12:50:39;;;;;;;6.28;4.72;;;31.60;84.90;;;;;;5088749;28;20218;-77
2021/06/11 12:53:06;;;;;;;4.97;4.68;;;31.70;84.80;;;;;;5064257;28;20606;-77
2021/06/11 12:55:36;;;;;;;4.57;4.20;;;31.80;84.90;;;;;;5086363;28;20220;-77
2021/06/11 12:58:02;;;;;;;3.63;3.33;;;31.90;84.00;;;;;;5078377;28;20225;-76